sensor_id;sensor_type;location;lat;lon;timestamp;temperature;humidity
40758;DHT22;26462;47.384;19.218;2023-06-14T00:01:51;15.20;99.40
40758;DHT22;26462;47.384;19.218;2023-06-14T00:04:19;15.20;99.90
40758;DHT22;26462;47.384;19.218;2023-06-14T00:06:47;15.20;99.90
40758;DHT22;26462;47.384;19.218;2023-06-14T00:09:17;15.20;99.90
40758;DHT22;26462;47.384;19.218;2023-06-14T00:11:45;15.10;99.90
40758;DHT22;26462;47.384;19.218;2023-06-14T00:14:12;15.00;99.90
40758;DHT22;26462;47.384;19.218;2023-06-14T00:16:40;15.10;99.90
40758;DHT22;26462;47.384;19.218;2023-06-14T00:19:09;15.10;99.90
40758;DHT22;26462;47.384;19.218;2023-06-14T00:21:38;15.00;99.90
40758;DHT22;26462;47.384;19.218;2023-06-14T00:24:05;14.90;99.90
40758;DHT22;26462;47.384;19.218;2023-06-14T00:26:32;15.00;99.90
40758;DHT22;26462;47.384;19.218;2023-06-14T00:29:00;14.90;99.90
40758;DHT22;26462;47.384;19.218;2023-06-14T00:31:27;14.90;99.90
40758;DHT22;26462;47.384;19.218;2023-06-14T00:33:54;15.00;99.90
40758;DHT22;26462;47.384;19.218;2023-06-14T00:36:21;14.90;99.90
40758;DHT22;26462;47.384;19.218;2023-06-14T00:38:48;14.90;99.90
40758;DHT22;26462;47.384;19.218;2023-06-14T00:41:15;14.90;99.90
40758;DHT22;26462;47.384;19.218;2023-06-14T00:43:42;14.90;99.90
40758;DHT22;26462;47.384;19.218;2023-06-14T00:46:10;15.00;99.90
40758;DHT22;26462;47.384;19.218;2023-06-14T00:48:38;14.90;99.90
40758;DHT22;26462;47.384;19.218;2023-06-14T00:51:06;14.90;99.90
40758;DHT22;26462;47.384;19.218;2023-06-14T00:53:34;14.90;99.90
40758;DHT22;26462;47.384;19.218;2023-06-14T00:56:03;15.00;99.90
40758;DHT22;26462;47.384;19.218;2023-06-14T00:58:30;15.00;99.90
40758;DHT22;26462;47.384;19.218;2023-06-14T01:00:59;14.90;99.90
40758;DHT22;26462;47.384;19.218;2023-06-14T01:03:26;14.90;99.90
40758;DHT22;26462;47.384;19.218;2023-06-14T01:06:42;14.80;99.90
40758;DHT22;26462;47.384;19.218;2023-06-14T01:09:29;14.70;99.90
40758;DHT22;26462;47.384;19.218;2023-06-14T01:12:25;14.70;99.90
40758;DHT22;26462;47.384;19.218;2023-06-14T01:14:57;14.70;99.90
40758;DHT22;26462;47.384;19.218;2023-06-14T01:17:27;14.80;99.90
40758;DHT22;26462;47.384;19.218;2023-06-14T01:20:01;14.80;99.90
40758;DHT22;26462;47.384;19.218;2023-06-14T01:22:30;14.70;99.90
40758;DHT22;26462;47.384;19.218;2023-06-14T01:24:57;14.70;99.90
40758;DHT22;26462;47.384;19.218;2023-06-14T01:27:26;14.70;99.90
40758;DHT22;26462;47.384;19.218;2023-06-14T01:29:56;14.70;99.90
40758;DHT22;26462;47.384;19.218;2023-06-14T01:32:29;14.70;99.90
40758;DHT22;26462;47.384;19.218;2023-06-14T01:34:56;14.70;99.90
40758;DHT22;26462;47.384;19.218;2023-06-14T01:37:27;14.60;99.90
40758;DHT22;26462;47.384;19.218;2023-06-14T01:39:55;14.60;99.90
40758;DHT22;26462;47.384;19.218;2023-06-14T01:42:23;14.60;99.90
40758;DHT22;26462;47.384;19.218;2023-06-14T01:44:51;14.60;99.90
40758;DHT22;26462;47.384;19.218;2023-06-14T01:47:20;14.50;99.90
40758;DHT22;26462;47.384;19.218;2023-06-14T01:49:48;14.50;99.90
40758;DHT22;26462;47.384;19.218;2023-06-14T01:52:15;14.50;99.90
40758;DHT22;26462;47.384;19.218;2023-06-14T01:54:42;14.40;99.90
40758;DHT22;26462;47.384;19.218;2023-06-14T01:57:10;14.40;99.90
40758;DHT22;26462;47.384;19.218;2023-06-14T01:59:37;14.40;99.90
40758;DHT22;26462;47.384;19.218;2023-06-14T02:02:05;14.40;99.90
40758;DHT22;26462;47.384;19.218;2023-06-14T02:04:32;14.40;99.90
40758;DHT22;26462;47.384;19.218;2023-06-14T02:06:59;14.30;99.90
40758;DHT22;26462;47.384;19.218;2023-06-14T02:09:27;14.40;99.90
40758;DHT22;26462;47.384;19.218;2023-06-14T02:11:54;14.40;99.90
40758;DHT22;26462;47.384;19.218;2023-06-14T02:14:21;14.40;99.90
40758;DHT22;26462;47.384;19.218;2023-06-14T02:16:48;14.40;99.90
40758;DHT22;26462;47.384;19.218;2023-06-14T02:19:16;14.40;99.90
40758;DHT22;26462;47.384;19.218;2023-06-14T02:21:44;14.30;99.90
40758;DHT22;26462;47.384;19.218;2023-06-14T02:24:12;14.30;99.90
40758;DHT22;26462;47.384;19.218;2023-06-14T02:26:40;14.30;99.90
40758;DHT22;26462;47.384;19.218;2023-06-14T02:29:14;14.30;99.90
40758;DHT22;26462;47.384;19.218;2023-06-14T02:31:42;14.20;99.90
40758;DHT22;26462;47.384;19.218;2023-06-14T02:34:09;14.20;99.90
40758;DHT22;26462;47.384;19.218;2023-06-14T02:36:36;14.20;99.90
40758;DHT22;26462;47.384;19.218;2023-06-14T02:39:09;14.20;99.90
40758;DHT22;26462;47.384;19.218;2023-06-14T02:41:36;14.20;99.90
40758;DHT22;26462;47.384;19.218;2023-06-14T02:44:04;14.20;99.90
40758;DHT22;26462;47.384;19.218;2023-06-14T02:46:31;14.20;99.90
40758;DHT22;26462;47.384;19.218;2023-06-14T02:48:59;14.20;99.90
40758;DHT22;26462;47.384;19.218;2023-06-14T02:51:26;14.20;99.90
40758;DHT22;26462;47.384;19.218;2023-06-14T02:53:53;14.20;99.90
40758;DHT22;26462;47.384;19.218;2023-06-14T02:56:21;14.20;99.90
40758;DHT22;26462;47.384;19.218;2023-06-14T02:58:50;14.10;99.90
40758;DHT22;26462;47.384;19.218;2023-06-14T03:01:18;14.10;99.90
40758;DHT22;26462;47.384;19.218;2023-06-14T03:03:47;14.10;99.90
40758;DHT22;26462;47.384;19.218;2023-06-14T03:06:14;14.10;99.90
40758;DHT22;26462;47.384;19.218;2023-06-14T03:08:45;14.10;99.90
40758;DHT22;26462;47.384;19.218;2023-06-14T03:11:15;14.10;99.90
40758;DHT22;26462;47.384;19.218;2023-06-14T03:13:44;14.10;99.90
40758;DHT22;26462;47.384;19.218;2023-06-14T03:16:12;14.10;99.90
40758;DHT22;26462;47.384;19.218;2023-06-14T03:18:40;14.20;99.90
40758;DHT22;26462;47.384;19.218;2023-06-14T03:21:07;14.10;99.90
40758;DHT22;26462;47.384;19.218;2023-06-14T03:23:38;14.10;99.90
40758;DHT22;26462;47.384;19.218;2023-06-14T03:26:05;14.10;99.90
40758;DHT22;26462;47.384;19.218;2023-06-14T03:28:33;14.10;99.90
40758;DHT22;26462;47.384;19.218;2023-06-14T03:31:00;14.10;99.90
40758;DHT22;26462;47.384;19.218;2023-06-14T03:33:31;14.10;99.90
40758;DHT22;26462;47.384;19.218;2023-06-14T03:35:58;14.10;99.90
40758;DHT22;26462;47.384;19.218;2023-06-14T03:38:27;14.10;99.90
40758;DHT22;26462;47.384;19.218;2023-06-14T03:40:54;14.20;99.90
40758;DHT22;26462;47.384;19.218;2023-06-14T03:43:21;14.20;99.90
40758;DHT22;26462;47.384;19.218;2023-06-14T03:45:49;14.20;99.90
40758;DHT22;26462;47.384;19.218;2023-06-14T03:48:17;14.30;99.90
40758;DHT22;26462;47.384;19.218;2023-06-14T03:50:45;14.30;99.90
40758;DHT22;26462;47.384;19.218;2023-06-14T03:53:12;14.30;99.90
40758;DHT22;26462;47.384;19.218;2023-06-14T03:55:42;14.40;99.90
40758;DHT22;26462;47.384;19.218;2023-06-14T03:58:12;14.40;99.90
40758;DHT22;26462;47.384;19.218;2023-06-14T04:00:40;14.50;99.90
40758;DHT22;26462;47.384;19.218;2023-06-14T04:03:07;14.60;99.90
40758;DHT22;26462;47.384;19.218;2023-06-14T04:05:35;14.60;99.90
40758;DHT22;26462;47.384;19.218;2023-06-14T04:08:03;14.70;99.90
40758;DHT22;26462;47.384;19.218;2023-06-14T04:10:31;14.70;99.90
40758;DHT22;26462;47.384;19.218;2023-06-14T04:12:58;14.70;99.90
40758;DHT22;26462;47.384;19.218;2023-06-14T04:15:26;14.80;99.90
40758;DHT22;26462;47.384;19.218;2023-06-14T04:17:58;14.80;99.90
40758;DHT22;26462;47.384;19.218;2023-06-14T04:20:25;14.80;99.90
40758;DHT22;26462;47.384;19.218;2023-06-14T04:22:53;14.90;99.90
40758;DHT22;26462;47.384;19.218;2023-06-14T04:25:20;14.90;99.90
40758;DHT22;26462;47.384;19.218;2023-06-14T04:27:51;15.10;99.90
40758;DHT22;26462;47.384;19.218;2023-06-14T04:30:21;15.10;99.90
40758;DHT22;26462;47.384;19.218;2023-06-14T04:32:52;15.10;99.90
40758;DHT22;26462;47.384;19.218;2023-06-14T04:35:23;15.20;99.90
40758;DHT22;26462;47.384;19.218;2023-06-14T04:37:51;15.30;99.90
40758;DHT22;26462;47.384;19.218;2023-06-14T04:40:21;15.20;99.90
40758;DHT22;26462;47.384;19.218;2023-06-14T04:42:48;15.40;99.90
40758;DHT22;26462;47.384;19.218;2023-06-14T04:45:17;15.50;99.90
40758;DHT22;26462;47.384;19.218;2023-06-14T04:47:45;15.50;99.90
40758;DHT22;26462;47.384;19.218;2023-06-14T04:50:13;15.40;99.90
40758;DHT22;26462;47.384;19.218;2023-06-14T04:52:40;15.50;99.90
40758;DHT22;26462;47.384;19.218;2023-06-14T04:55:09;15.60;99.90
40758;DHT22;26462;47.384;19.218;2023-06-14T04:57:37;15.70;99.90
40758;DHT22;26462;47.384;19.218;2023-06-14T05:00:06;15.80;99.90
40758;DHT22;26462;47.384;19.218;2023-06-14T05:02:34;15.80;99.90
40758;DHT22;26462;47.384;19.218;2023-06-14T05:05:04;15.90;99.90
40758;DHT22;26462;47.384;19.218;2023-06-14T05:07:34;16.10;99.90
40758;DHT22;26462;47.384;19.218;2023-06-14T05:10:02;16.00;99.90
40758;DHT22;26462;47.384;19.218;2023-06-14T05:12:29;16.20;99.90
40758;DHT22;26462;47.384;19.218;2023-06-14T05:14:57;16.40;99.90
40758;DHT22;26462;47.384;19.218;2023-06-14T05:17:26;16.50;99.90
40758;DHT22;26462;47.384;19.218;2023-06-14T05:19:55;16.50;99.90
40758;DHT22;26462;47.384;19.218;2023-06-14T05:22:22;16.80;99.90
40758;DHT22;26462;47.384;19.218;2023-06-14T05:24:50;16.90;99.90
40758;DHT22;26462;47.384;19.218;2023-06-14T05:27:17;17.00;99.90
40758;DHT22;26462;47.384;19.218;2023-06-14T05:29:44;17.00;99.90
40758;DHT22;26462;47.384;19.218;2023-06-14T05:32:11;17.10;99.40
40758;DHT22;26462;47.384;19.218;2023-06-14T05:34:39;17.20;99.40
40758;DHT22;26462;47.384;19.218;2023-06-14T05:37:06;17.20;98.80
40758;DHT22;26462;47.384;19.218;2023-06-14T05:39:34;17.30;98.80
40758;DHT22;26462;47.384;19.218;2023-06-14T05:42:01;17.60;98.40
40758;DHT22;26462;47.384;19.218;2023-06-14T05:44:28;17.70;97.70
40758;DHT22;26462;47.384;19.218;2023-06-14T05:46:55;17.80;98.60
40758;DHT22;26462;47.384;19.218;2023-06-14T05:49:22;17.80;97.30
40758;DHT22;26462;47.384;19.218;2023-06-14T05:51:49;17.70;96.80
40758;DHT22;26462;47.384;19.218;2023-06-14T05:54:17;17.90;97.10
40758;DHT22;26462;47.384;19.218;2023-06-14T05:56:44;18.00;96.00
40758;DHT22;26462;47.384;19.218;2023-06-14T05:59:11;18.10;96.70
40758;DHT22;26462;47.384;19.218;2023-06-14T06:01:38;18.30;96.90
40758;DHT22;26462;47.384;19.218;2023-06-14T06:04:07;18.40;97.20
40758;DHT22;26462;47.384;19.218;2023-06-14T06:06:34;18.60;96.10
40758;DHT22;26462;47.384;19.218;2023-06-14T06:09:02;18.70;95.20
40758;DHT22;26462;47.384;19.218;2023-06-14T06:11:29;18.80;94.80
40758;DHT22;26462;47.384;19.218;2023-06-14T06:14:14;18.80;94.40
40758;DHT22;26462;47.384;19.218;2023-06-14T06:16:41;18.90;94.40
40758;DHT22;26462;47.384;19.218;2023-06-14T06:19:08;19.00;94.50
40758;DHT22;26462;47.384;19.218;2023-06-14T06:21:35;19.10;93.90
40758;DHT22;26462;47.384;19.218;2023-06-14T06:24:04;19.20;94.30
40758;DHT22;26462;47.384;19.218;2023-06-14T06:26:32;19.20;93.60
40758;DHT22;26462;47.384;19.218;2023-06-14T06:28:59;19.40;94.00
40758;DHT22;26462;47.384;19.218;2023-06-14T06:31:27;19.50;93.60
40758;DHT22;26462;47.384;19.218;2023-06-14T06:33:54;19.60;92.80
40758;DHT22;26462;47.384;19.218;2023-06-14T06:36:22;19.70;93.70
40758;DHT22;26462;47.384;19.218;2023-06-14T06:38:49;19.70;92.80
40758;DHT22;26462;47.384;19.218;2023-06-14T06:41:16;19.80;92.60
40758;DHT22;26462;47.384;19.218;2023-06-14T06:43:43;19.90;92.50
40758;DHT22;26462;47.384;19.218;2023-06-14T06:46:10;19.90;92.90
40758;DHT22;26462;47.384;19.218;2023-06-14T06:48:38;20.00;93.50
40758;DHT22;26462;47.384;19.218;2023-06-14T06:51:05;20.20;92.70
40758;DHT22;26462;47.384;19.218;2023-06-14T06:53:32;20.30;91.00
40758;DHT22;26462;47.384;19.218;2023-06-14T06:56:09;20.40;90.80
40758;DHT22;26462;47.384;19.218;2023-06-14T06:58:37;20.50;90.90
40758;DHT22;26462;47.384;19.218;2023-06-14T07:01:04;20.60;90.20
40758;DHT22;26462;47.384;19.218;2023-06-14T07:03:31;20.80;90.10
40758;DHT22;26462;47.384;19.218;2023-06-14T07:05:59;21.10;89.60
40758;DHT22;26462;47.384;19.218;2023-06-14T07:08:26;21.20;89.80
40758;DHT22;26462;47.384;19.218;2023-06-14T07:10:54;21.50;90.80
40758;DHT22;26462;47.384;19.218;2023-06-14T07:13:22;21.40;87.70
40758;DHT22;26462;47.384;19.218;2023-06-14T07:15:49;21.00;88.00
40758;DHT22;26462;47.384;19.218;2023-06-14T07:18:18;21.20;88.90
40758;DHT22;26462;47.384;19.218;2023-06-14T07:20:45;21.10;87.80
40758;DHT22;26462;47.384;19.218;2023-06-14T07:23:12;20.70;86.60
40758;DHT22;26462;47.384;19.218;2023-06-14T07:25:39;20.50;86.90
40758;DHT22;26462;47.384;19.218;2023-06-14T07:28:06;20.20;88.10
40758;DHT22;26462;47.384;19.218;2023-06-14T07:30:35;20.20;89.40
40758;DHT22;26462;47.384;19.218;2023-06-14T07:33:02;20.10;90.60
40758;DHT22;26462;47.384;19.218;2023-06-14T07:35:29;20.00;90.40
40758;DHT22;26462;47.384;19.218;2023-06-14T07:37:57;20.00;90.50
40758;DHT22;26462;47.384;19.218;2023-06-14T07:40:24;20.10;90.40
40758;DHT22;26462;47.384;19.218;2023-06-14T07:42:51;20.10;89.50
40758;DHT22;26462;47.384;19.218;2023-06-14T07:45:21;20.20;89.60
40758;DHT22;26462;47.384;19.218;2023-06-14T07:47:48;20.20;88.40
40758;DHT22;26462;47.384;19.218;2023-06-14T07:50:15;20.10;89.80
40758;DHT22;26462;47.384;19.218;2023-06-14T07:52:44;20.00;90.00
40758;DHT22;26462;47.384;19.218;2023-06-14T07:55:11;19.80;87.60
40758;DHT22;26462;47.384;19.218;2023-06-14T07:57:39;19.80;88.90
40758;DHT22;26462;47.384;19.218;2023-06-14T08:00:06;19.90;90.10
40758;DHT22;26462;47.384;19.218;2023-06-14T08:02:39;19.90;90.40
40758;DHT22;26462;47.384;19.218;2023-06-14T08:05:07;20.00;88.80
40758;DHT22;26462;47.384;19.218;2023-06-14T08:07:35;20.40;88.40
40758;DHT22;26462;47.384;19.218;2023-06-14T08:10:05;20.80;88.80
40758;DHT22;26462;47.384;19.218;2023-06-14T08:12:34;21.20;89.50
40758;DHT22;26462;47.384;19.218;2023-06-14T08:15:02;21.10;83.90
40758;DHT22;26462;47.384;19.218;2023-06-14T08:17:41;21.50;86.00
40758;DHT22;26462;47.384;19.218;2023-06-14T08:20:09;21.70;86.00
40758;DHT22;26462;47.384;19.218;2023-06-14T08:22:38;21.60;84.30
40758;DHT22;26462;47.384;19.218;2023-06-14T08:25:06;21.70;88.00
40758;DHT22;26462;47.384;19.218;2023-06-14T08:27:34;21.70;84.50
40758;DHT22;26462;47.384;19.218;2023-06-14T08:30:02;21.80;83.40
40758;DHT22;26462;47.384;19.218;2023-06-14T08:32:30;21.60;80.10
40758;DHT22;26462;47.384;19.218;2023-06-14T08:34:57;21.70;82.70
40758;DHT22;26462;47.384;19.218;2023-06-14T08:37:32;21.80;80.60
40758;DHT22;26462;47.384;19.218;2023-06-14T08:40:00;22.00;80.50
40758;DHT22;26462;47.384;19.218;2023-06-14T08:42:31;22.00;79.90
40758;DHT22;26462;47.384;19.218;2023-06-14T08:44:59;21.80;78.90
40758;DHT22;26462;47.384;19.218;2023-06-14T08:47:27;21.90;80.80
40758;DHT22;26462;47.384;19.218;2023-06-14T08:49:57;21.70;80.40
40758;DHT22;26462;47.384;19.218;2023-06-14T08:52:26;21.60;81.30
40758;DHT22;26462;47.384;19.218;2023-06-14T08:54:57;21.50;81.10
40758;DHT22;26462;47.384;19.218;2023-06-14T08:57:24;21.40;82.00
40758;DHT22;26462;47.384;19.218;2023-06-14T08:59:52;21.40;80.00
40758;DHT22;26462;47.384;19.218;2023-06-14T09:02:20;21.40;79.70
40758;DHT22;26462;47.384;19.218;2023-06-14T09:04:49;21.60;81.50
40758;DHT22;26462;47.384;19.218;2023-06-14T09:07:16;22.00;78.10
40758;DHT22;26462;47.384;19.218;2023-06-14T09:09:44;22.00;77.60
40758;DHT22;26462;47.384;19.218;2023-06-14T09:12:31;22.10;78.10
40758;DHT22;26462;47.384;19.218;2023-06-14T09:14:58;22.00;78.60
40758;DHT22;26462;47.384;19.218;2023-06-14T09:17:25;21.90;78.90
40758;DHT22;26462;47.384;19.218;2023-06-14T09:19:55;21.90;75.50
40758;DHT22;26462;47.384;19.218;2023-06-14T09:22:22;22.10;78.90
40758;DHT22;26462;47.384;19.218;2023-06-14T09:24:49;21.80;78.10
40758;DHT22;26462;47.384;19.218;2023-06-14T09:27:17;21.70;78.50
40758;DHT22;26462;47.384;19.218;2023-06-14T09:29:44;21.60;81.20
40758;DHT22;26462;47.384;19.218;2023-06-14T09:32:11;21.50;77.90
40758;DHT22;26462;47.384;19.218;2023-06-14T09:34:38;21.40;78.10
40758;DHT22;26462;47.384;19.218;2023-06-14T09:37:05;21.30;78.90
40758;DHT22;26462;47.384;19.218;2023-06-14T09:39:33;21.30;79.30
40758;DHT22;26462;47.384;19.218;2023-06-14T09:42:00;21.20;78.60
40758;DHT22;26462;47.384;19.218;2023-06-14T09:44:27;21.20;78.70
40758;DHT22;26462;47.384;19.218;2023-06-14T09:46:56;21.20;77.00
40758;DHT22;26462;47.384;19.218;2023-06-14T09:49:23;21.20;77.60
40758;DHT22;26462;47.384;19.218;2023-06-14T09:51:54;21.20;77.30
40758;DHT22;26462;47.384;19.218;2023-06-14T09:54:23;21.20;78.10
40758;DHT22;26462;47.384;19.218;2023-06-14T09:56:51;21.30;75.80
40758;DHT22;26462;47.384;19.218;2023-06-14T09:59:26;21.30;76.50
40758;DHT22;26462;47.384;19.218;2023-06-14T10:02:00;21.80;77.50
40758;DHT22;26462;47.384;19.218;2023-06-14T10:04:31;22.00;74.10
40758;DHT22;26462;47.384;19.218;2023-06-14T10:07:00;22.30;74.90
40758;DHT22;26462;47.384;19.218;2023-06-14T10:09:29;22.40;77.00
40758;DHT22;26462;47.384;19.218;2023-06-14T10:11:59;22.50;76.70
40758;DHT22;26462;47.384;19.218;2023-06-14T10:14:26;22.40;74.90
40758;DHT22;26462;47.384;19.218;2023-06-14T10:17:08;22.40;73.60
40758;DHT22;26462;47.384;19.218;2023-06-14T10:19:53;22.50;71.70
40758;DHT22;26462;47.384;19.218;2023-06-14T10:22:37;22.50;71.40
40758;DHT22;26462;47.384;19.218;2023-06-14T10:25:12;22.50;70.30
40758;DHT22;26462;47.384;19.218;2023-06-14T10:27:44;22.50;68.10
40758;DHT22;26462;47.384;19.218;2023-06-14T10:30:15;22.40;67.30
40758;DHT22;26462;47.384;19.218;2023-06-14T10:33:05;22.60;68.70
40758;DHT22;26462;47.384;19.218;2023-06-14T10:35:37;22.70;68.20
40758;DHT22;26462;47.384;19.218;2023-06-14T10:38:08;23.00;72.30
40758;DHT22;26462;47.384;19.218;2023-06-14T10:40:36;23.00;66.70
40758;DHT22;26462;47.384;19.218;2023-06-14T10:43:24;23.00;66.00
40758;DHT22;26462;47.384;19.218;2023-06-14T10:46:18;23.00;68.10
40758;DHT22;26462;47.384;19.218;2023-06-14T10:48:45;23.00;67.50
40758;DHT22;26462;47.384;19.218;2023-06-14T10:51:21;22.90;65.60
40758;DHT22;26462;47.384;19.218;2023-06-14T10:53:49;22.90;66.00
40758;DHT22;26462;47.384;19.218;2023-06-14T10:56:46;23.00;65.30
40758;DHT22;26462;47.384;19.218;2023-06-14T10:59:14;23.20;65.30
40758;DHT22;26462;47.384;19.218;2023-06-14T11:04:53;23.20;64.50
40758;DHT22;26462;47.384;19.218;2023-06-14T11:10:36;22.90;66.40
40758;DHT22;26462;47.384;19.218;2023-06-14T11:13:04;22.70;66.30
40758;DHT22;26462;47.384;19.218;2023-06-14T11:15:33;22.80;66.30
40758;DHT22;26462;47.384;19.218;2023-06-14T11:18:07;22.70;66.10
40758;DHT22;26462;47.384;19.218;2023-06-14T11:20:39;22.70;67.00
40758;DHT22;26462;47.384;19.218;2023-06-14T11:23:06;22.60;65.10
40758;DHT22;26462;47.384;19.218;2023-06-14T11:25:33;22.70;65.90
40758;DHT22;26462;47.384;19.218;2023-06-14T11:28:00;22.60;66.40
40758;DHT22;26462;47.384;19.218;2023-06-14T11:30:27;22.90;66.40
40758;DHT22;26462;47.384;19.218;2023-06-14T11:32:55;23.00;68.40
40758;DHT22;26462;47.384;19.218;2023-06-14T11:35:25;23.10;66.80
40758;DHT22;26462;47.384;19.218;2023-06-14T11:37:57;23.00;62.60
40758;DHT22;26462;47.384;19.218;2023-06-14T11:40:25;23.00;66.00
40758;DHT22;26462;47.384;19.218;2023-06-14T11:43:00;22.80;63.10
40758;DHT22;26462;47.384;19.218;2023-06-14T11:45:29;22.80;66.10
40758;DHT22;26462;47.384;19.218;2023-06-14T11:47:58;22.90;66.60
40758;DHT22;26462;47.384;19.218;2023-06-14T11:50:27;23.00;66.90
40758;DHT22;26462;47.384;19.218;2023-06-14T11:52:59;22.90;62.40
40758;DHT22;26462;47.384;19.218;2023-06-14T11:55:37;22.90;63.70
40758;DHT22;26462;47.384;19.218;2023-06-14T11:58:05;22.80;60.70
40758;DHT22;26462;47.384;19.218;2023-06-14T12:00:34;22.80;61.90
40758;DHT22;26462;47.384;19.218;2023-06-14T12:03:02;22.80;62.60
40758;DHT22;26462;47.384;19.218;2023-06-14T12:05:30;22.80;64.20
40758;DHT22;26462;47.384;19.218;2023-06-14T12:08:02;22.80;65.50
40758;DHT22;26462;47.384;19.218;2023-06-14T12:10:30;22.90;65.70
40758;DHT22;26462;47.384;19.218;2023-06-14T12:13:06;23.00;65.70
40758;DHT22;26462;47.384;19.218;2023-06-14T12:15:34;23.10;65.20
40758;DHT22;26462;47.384;19.218;2023-06-14T12:18:04;23.20;66.70
40758;DHT22;26462;47.384;19.218;2023-06-14T12:20:33;23.10;63.90
40758;DHT22;26462;47.384;19.218;2023-06-14T12:23:03;23.30;66.30
40758;DHT22;26462;47.384;19.218;2023-06-14T12:25:32;23.20;64.40
40758;DHT22;26462;47.384;19.218;2023-06-14T12:28:08;23.20;66.00
40758;DHT22;26462;47.384;19.218;2023-06-14T12:30:36;23.20;66.00
40758;DHT22;26462;47.384;19.218;2023-06-14T12:33:04;23.00;63.70
40758;DHT22;26462;47.384;19.218;2023-06-14T12:35:31;23.00;63.80
40758;DHT22;26462;47.384;19.218;2023-06-14T12:37:59;23.10;62.10
40758;DHT22;26462;47.384;19.218;2023-06-14T12:40:26;23.00;58.60
40758;DHT22;26462;47.384;19.218;2023-06-14T12:42:53;23.10;60.20
40758;DHT22;26462;47.384;19.218;2023-06-14T12:45:20;23.20;62.30
40758;DHT22;26462;47.384;19.218;2023-06-14T12:47:47;23.20;61.30
40758;DHT22;26462;47.384;19.218;2023-06-14T12:50:15;23.30;61.00
40758;DHT22;26462;47.384;19.218;2023-06-14T12:52:42;23.30;61.00
40758;DHT22;26462;47.384;19.218;2023-06-14T12:55:09;23.40;60.60
40758;DHT22;26462;47.384;19.218;2023-06-14T12:57:37;23.40;60.40
40758;DHT22;26462;47.384;19.218;2023-06-14T13:00:05;23.50;59.90
40758;DHT22;26462;47.384;19.218;2023-06-14T13:02:34;23.40;59.80
40758;DHT22;26462;47.384;19.218;2023-06-14T13:05:02;23.20;57.70
40758;DHT22;26462;47.384;19.218;2023-06-14T13:07:30;23.00;58.50
40758;DHT22;26462;47.384;19.218;2023-06-14T13:09:58;22.90;56.10
40758;DHT22;26462;47.384;19.218;2023-06-14T13:12:25;22.70;56.50
40758;DHT22;26462;47.384;19.218;2023-06-14T13:14:52;22.80;60.40
40758;DHT22;26462;47.384;19.218;2023-06-14T13:17:19;23.10;58.00
40758;DHT22;26462;47.384;19.218;2023-06-14T13:19:46;23.20;56.20
40758;DHT22;26462;47.384;19.218;2023-06-14T13:22:14;23.40;57.40
40758;DHT22;26462;47.384;19.218;2023-06-14T13:24:41;23.60;56.40
40758;DHT22;26462;47.384;19.218;2023-06-14T13:27:08;23.60;56.60
40758;DHT22;26462;47.384;19.218;2023-06-14T13:29:35;23.40;57.70
40758;DHT22;26462;47.384;19.218;2023-06-14T13:32:03;23.30;56.90
40758;DHT22;26462;47.384;19.218;2023-06-14T13:34:31;23.20;56.30
40758;DHT22;26462;47.384;19.218;2023-06-14T13:36:58;23.30;55.80
40758;DHT22;26462;47.384;19.218;2023-06-14T13:39:26;23.40;56.00
40758;DHT22;26462;47.384;19.218;2023-06-14T13:41:53;23.50;56.50
40758;DHT22;26462;47.384;19.218;2023-06-14T13:44:20;23.50;56.50
40758;DHT22;26462;47.384;19.218;2023-06-14T13:46:48;23.40;58.00
40758;DHT22;26462;47.384;19.218;2023-06-14T13:49:16;23.40;59.10
40758;DHT22;26462;47.384;19.218;2023-06-14T13:51:44;23.60;60.00
40758;DHT22;26462;47.384;19.218;2023-06-14T13:54:12;23.60;58.20
40758;DHT22;26462;47.384;19.218;2023-06-14T13:56:42;23.50;57.80
40758;DHT22;26462;47.384;19.218;2023-06-14T13:59:09;23.30;58.00
40758;DHT22;26462;47.384;19.218;2023-06-14T14:01:36;23.20;58.60
40758;DHT22;26462;47.384;19.218;2023-06-14T14:04:04;23.20;60.30
40758;DHT22;26462;47.384;19.218;2023-06-14T14:06:32;23.20;59.90
40758;DHT22;26462;47.384;19.218;2023-06-14T14:09:00;23.10;60.40
40758;DHT22;26462;47.384;19.218;2023-06-14T14:11:27;23.00;59.40
40758;DHT22;26462;47.384;19.218;2023-06-14T14:13:55;22.90;61.50
40758;DHT22;26462;47.384;19.218;2023-06-14T14:16:24;22.90;60.60
40758;DHT22;26462;47.384;19.218;2023-06-14T14:18:51;23.00;61.40
40758;DHT22;26462;47.384;19.218;2023-06-14T14:21:18;23.00;62.60
40758;DHT22;26462;47.384;19.218;2023-06-14T14:23:45;23.10;63.70
40758;DHT22;26462;47.384;19.218;2023-06-14T14:26:12;23.20;63.20
40758;DHT22;26462;47.384;19.218;2023-06-14T14:28:40;23.20;62.50
40758;DHT22;26462;47.384;19.218;2023-06-14T14:31:07;23.00;64.20
40758;DHT22;26462;47.384;19.218;2023-06-14T14:33:34;23.00;64.80
40758;DHT22;26462;47.384;19.218;2023-06-14T14:36:02;22.90;65.70
40758;DHT22;26462;47.384;19.218;2023-06-14T14:38:31;22.80;64.90
40758;DHT22;26462;47.384;19.218;2023-06-14T14:40:58;22.70;65.50
40758;DHT22;26462;47.384;19.218;2023-06-14T14:43:25;22.60;66.50
40758;DHT22;26462;47.384;19.218;2023-06-14T14:45:53;22.60;67.80
40758;DHT22;26462;47.384;19.218;2023-06-14T14:48:20;22.60;67.70
40758;DHT22;26462;47.384;19.218;2023-06-14T14:50:48;22.40;66.50
40758;DHT22;26462;47.384;19.218;2023-06-14T14:53:15;22.40;67.70
40758;DHT22;26462;47.384;19.218;2023-06-14T14:55:45;22.40;68.10
40758;DHT22;26462;47.384;19.218;2023-06-14T14:58:12;22.40;68.60
40758;DHT22;26462;47.384;19.218;2023-06-14T15:00:40;22.30;68.10
40758;DHT22;26462;47.384;19.218;2023-06-14T15:03:07;22.30;68.60
40758;DHT22;26462;47.384;19.218;2023-06-14T15:05:34;22.30;67.70
40758;DHT22;26462;47.384;19.218;2023-06-14T15:08:01;22.30;69.10
40758;DHT22;26462;47.384;19.218;2023-06-14T15:10:28;22.30;69.60
40758;DHT22;26462;47.384;19.218;2023-06-14T15:12:56;22.20;69.50
40758;DHT22;26462;47.384;19.218;2023-06-14T15:15:23;22.20;70.60
40758;DHT22;26462;47.384;19.218;2023-06-14T15:17:50;22.10;68.90
40758;DHT22;26462;47.384;19.218;2023-06-14T15:20:17;22.00;69.30
40758;DHT22;26462;47.384;19.218;2023-06-14T15:22:45;22.00;69.70
40758;DHT22;26462;47.384;19.218;2023-06-14T15:25:16;21.90;69.30
40758;DHT22;26462;47.384;19.218;2023-06-14T15:27:44;21.80;69.40
40758;DHT22;26462;47.384;19.218;2023-06-14T15:30:11;21.90;70.10
40758;DHT22;26462;47.384;19.218;2023-06-14T15:32:39;21.80;70.30